Time;durP1;ratioP1;P1;durP2;ratioP2;P2;SDS_P1;SDS_P2;PMS_P1;PMS_P2;Temp;Humidity;BMP_temperature;BMP_pressure;BME280_temperature;BME280_humidity;BME280_pressure;Samples;Min_cycle;Max_cycle;Signal;HPM_P1;HPM_P2
2021/05/11 00:01:54;;;;;;;14.27;10.30;;;;;;;13.69;94.14;95746.97;4988571;28;20463;-38
2021/05/11 00:04:21;;;;;;;13.73;9.00;;;;;;;13.58;94.98;95752.34;4983008;28;20883;-38
2021/05/11 00:06:48;;;;;;;15.30;9.53;;;;;;;13.58;95.34;95754.94;4985845;28;20444;-45
2021/05/11 00:09:16;;;;;;;17.70;9.80;;;;;;;13.55;95.16;95742.13;4988363;28;20551;-38
2021/05/11 00:11:43;;;;;;;12.90;8.70;;;;;;;13.63;95.26;95764.03;4988688;28;20542;-38
2021/05/11 00:14:10;;;;;;;13.40;8.73;;;;;;;13.67;94.56;95746.28;4988937;28;20844;-38
2021/05/11 00:16:37;;;;;;;16.00;10.33;;;;;;;13.77;93.91;95744.50;4987120;28;20451;-38
2021/05/11 00:19:07;;;;;;;14.60;9.27;;;;;;;13.75;93.45;95754.28;4990329;28;21012;-45
2021/05/11 00:21:34;;;;;;;18.00;11.93;;;;;;;13.78;93.38;95767.13;4989311;28;20452;-35
2021/05/11 00:24:01;;;;;;;16.43;10.87;;;;;;;13.38;94.64;95727.09;4987063;28;20855;-35
2021/05/11 00:26:28;;;;;;;15.93;10.20;;;;;;;13.34;95.61;95767.53;4989790;28;20439;-42
2021/05/11 00:28:55;;;;;;;16.17;10.13;;;;;;;13.26;96.72;95759.50;4989122;28;20955;-42
2021/05/11 00:31:22;;;;;;;16.17;10.50;;;;;;;13.40;96.75;95759.13;4987862;28;20459;-42
2021/05/11 00:33:55;;;;;;;15.60;9.60;;;;;;;13.47;96.01;95762.88;4991642;28;20522;-35
2021/05/11 00:36:23;;;;;;;15.90;10.30;;;;;;;13.53;95.69;95757.13;4996806;28;20989;-42
2021/05/11 00:38:50;;;;;;;16.40;10.57;;;;;;;13.54;95.49;95749.16;4991856;28;20951;-42
2021/05/11 00:41:17;;;;;;;16.03;10.87;;;;;;;13.55;95.59;95749.97;4991657;28;20925;-42
2021/05/11 00:43:45;;;;;;;17.80;11.63;;;;;;;13.60;95.26;95737.34;4987813;28;20473;-41
2021/05/11 00:46:13;;;;;;;16.83;10.90;;;;;;;13.68;94.75;95747.94;4992679;28;20499;-35
2021/05/11 00:48:42;;;;;;;17.87;12.07;;;;;;;13.65;94.68;95740.38;4988724;28;20483;-35
2021/05/11 00:51:17;;;;;;;16.67;11.10;;;;;;;13.70;95.20;95738.19;4991182;28;20460;-43
2021/05/11 00:53:46;;;;;;;19.93;11.23;;;;;;;13.74;94.80;95735.16;4991326;28;20900;-35
2021/05/11 00:56:15;;;;;;;15.50;10.37;;;;;;;13.67;94.54;95723.59;4994223;28;20475;-34
2021/05/11 00:58:43;;;;;;;13.30;9.03;;;;;;;13.67;94.73;95734.06;4989043;28;20437;-42
2021/05/11 01:01:10;;;;;;;13.80;8.83;;;;;;;13.51;94.66;95732.91;4995470;28;20958;-35
2021/05/11 01:03:37;;;;;;;15.63;9.13;;;;;;;13.36;95.37;95734.25;4993927;28;20829;-42
2021/05/11 01:06:05;;;;;;;15.80;10.20;;;;;;;13.40;95.53;95726.00;4991995;28;20436;-36
2021/05/11 01:08:32;;;;;;;15.53;9.90;;;;;;;13.40;95.34;95719.94;4991938;28;20765;-42
2021/05/11 01:11:00;;;;;;;24.93;13.33;;;;;;;13.36;95.58;95719.38;4993656;28;20779;-42
2021/05/11 01:13:27;;;;;;;17.07;10.17;;;;;;;13.40;95.70;95730.38;4988326;28;20911;-35
2021/05/11 01:15:54;;;;;;;13.77;9.17;;;;;;;13.45;95.66;95734.28;4990208;28;20753;-42
2021/05/11 01:18:30;;;;;;;15.10;8.93;;;;;;;13.48;95.26;95730.56;4994754;28;20435;-35
2021/05/11 01:21:02;;;;;;;20.50;11.80;;;;;;;13.49;95.01;95721.78;4987842;28;20896;-46
2021/05/11 01:26:23;;;;;;;27.83;14.20;;;;;;;13.05;96.01;95662.88;5011715;28;20438;-33
2021/05/11 01:28:57;;;;;;;38.83;16.43;;;;;;;13.22;97.08;95698.00;5011542;28;20458;-40
2021/05/11 01:48:15;;;;;;;39.53;17.03;;;;;;;13.37;97.49;95688.84;5012359;28;20809;-34
2021/05/11 01:50:47;;;;;;;33.40;15.93;;;;;;;13.35;97.43;95701.22;5006527;28;20561;-41
2021/05/11 01:56:45;;;;;;;31.10;14.47;;;;;;;12.99;99.68;95688.72;5004465;28;20533;-36
2021/05/11 02:10:43;;;;;;;33.37;16.37;;;;;;;12.66;100.00;95720.28;4966102;28;20480;-36
2021/05/11 02:24:23;;;;;;;27.30;12.60;;;;;;;12.38;100.00;95717.50;4969627;28;20994;-47
2021/05/11 02:26:50;;;;;;;22.50;12.47;;;;;;;12.46;100.00;95715.91;4967134;28;20912;-37
2021/05/11 02:29:19;;;;;;;19.13;11.57;;;;;;;12.43;100.00;95703.09;4968666;28;21021;-37
2021/05/11 02:31:46;;;;;;;22.50;11.57;;;;;;;12.48;100.00;95695.72;4972718;28;20473;-43
2021/05/11 02:34:13;;;;;;;18.10;9.40;;;;;;;12.64;100.00;95709.13;4959997;28;20456;-37
2021/05/11 02:36:42;;;;;;;20.03;10.33;;;;;;;12.56;100.00;95715.94;4969950;28;20951;-37
2021/05/11 02:39:09;;;;;;;17.13;9.77;;;;;;;12.59;100.00;95700.84;4982957;28;20478;-37
2021/05/11 02:41:36;;;;;;;20.73;8.87;;;;;;;12.63;100.00;95701.44;5008928;28;20940;-44
2021/05/11 02:44:05;;;;;;;17.60;9.43;;;;;;;12.66;100.00;95702.00;4998395;28;20869;-41
2021/05/11 02:46:33;;;;;;;17.10;9.83;;;;;;;12.71;100.00;95699.84;5009603;28;20533;-41
2021/05/11 02:49:06;;;;;;;16.27;8.83;;;;;;;12.80;100.00;95691.22;5007396;28;20898;-41
2021/05/11 02:51:34;;;;;;;19.70;10.67;;;;;;;12.90;100.00;95697.31;5008611;28;20841;-42
2021/05/11 02:54:01;;;;;;;17.37;9.80;;;;;;;12.91;100.00;95691.13;5009756;28;20970;-41
2021/05/11 02:56:28;;;;;;;12.43;7.60;;;;;;;12.73;99.97;95691.88;5002134;28;20450;-42
2021/05/11 02:58:55;;;;;;;11.23;7.33;;;;;;;12.67;100.00;95692.41;5001157;28;21035;-36
2021/05/11 03:01:23;;;;;;;12.53;8.33;;;;;;;12.64;100.00;95701.31;5011819;28;20458;-42
2021/05/11 03:03:51;;;;;;;13.97;7.23;;;;;;;12.66;100.00;95711.63;5011517;28;20453;-42
2021/05/11 03:06:18;;;;;;;14.80;7.43;;;;;;;12.64;100.00;95701.31;5006341;28;20905;-42
2021/05/11 03:08:46;;;;;;;10.97;6.50;;;;;;;12.54;100.00;95705.66;5008270;28;20439;-41
2021/05/11 03:11:14;;;;;;;12.53;7.43;;;;;;;12.60;100.00;95702.50;5012348;28;20927;-42
2021/05/11 03:13:41;;;;;;;11.80;6.87;;;;;;;12.66;100.00;95702.00;5008430;28;20443;-36
2021/05/11 03:16:08;;;;;;;11.83;5.80;;;;;;;12.72;100.00;95691.03;5006945;28;20953;-36
2021/05/11 03:18:35;;;;;;;9.33;6.23;;;;;;;12.81;99.99;95698.09;5007391;28;20766;-41
2021/05/11 03:21:03;;;;;;;11.83;5.57;;;;;;;12.80;99.89;95696.44;5007600;28;20443;-36
2021/05/11 03:23:30;;;;;;;11.43;5.87;;;;;;;12.80;99.74;95699.88;5005954;28;20753;-42
2021/05/11 03:25:57;;;;;;;9.00;5.67;;;;;;;12.86;99.71;95699.38;5008520;28;20913;-36
2021/05/11 03:28:24;;;;;;;8.50;6.07;;;;;;;12.88;99.31;95684.38;5011237;28;20902;-46
2021/05/11 03:30:51;;;;;;;6.20;4.60;;;;;;;12.90;99.62;95673.81;5009476;28;20467;-43
2021/05/11 03:34:11;;;;;;;10.00;5.70;;;;;;;12.88;99.24;95675.72;5008079;28;20765;-43
2021/05/11 03:36:44;;;;;;;10.07;5.70;;;;;;;12.35;99.68;95598.53;5008312;28;20547;-43
2021/05/11 03:39:12;;;;;;;7.90;5.30;;;;;;;12.79;99.78;95656.44;5004280;28;20984;-37
2021/05/11 03:45:07;;;;;;;11.80;6.67;;;;;;;12.63;100.00;95665.72;5001131;28;21291;-37
2021/05/11 03:47:44;;;;;;;11.97;6.63;;;;;;;12.69;100.00;95652.94;4997895;28;20988;-37
2021/05/11 03:50:14;;;;;;;11.17;6.67;;;;;;;12.82;100.00;95645.72;5037814;28;20797;-37
2021/05/11 03:52:43;;;;;;;10.90;6.00;;;;;;;12.81;100.00;95653.69;5008831;28;20458;-45
2021/05/11 03:55:12;;;;;;;10.30;6.10;;;;;;;12.80;100.00;95655.50;5007375;28;20544;-37
2021/05/11 03:57:39;;;;;;;13.20;8.80;;;;;;;12.90;99.75;95642.47;5007299;28;20763;-43
2021/05/11 04:00:08;;;;;;;18.33;9.40;;;;;;;12.86;100.00;95643.69;5000808;28;20977;-43
2021/05/11 04:02:37;;;;;;;17.87;9.80;;;;;;;12.95;100.00;95650.75;5007284;28;21008;-37
2021/05/11 04:05:08;;;;;;;21.53;10.87;;;;;;;13.04;99.38;95652.56;5006755;28;20459;-37
2021/05/11 04:07:37;;;;;;;20.43;11.00;;;;;;;13.06;99.34;95646.25;5009680;28;20906;-37
2021/05/11 04:10:13;;;;;;;18.63;10.80;;;;;;;13.16;99.16;95654.13;5011123;28;20448;-43
2021/05/11 04:13:07;;;;;;;20.10;11.10;;;;;;;13.22;98.88;95640.53;5013868;28;20949;-43
2021/05/11 04:18:21;;;;;;;19.97;10.70;;;;;;;13.17;98.65;95647.94;5011755;28;20832;-37
2021/05/11 04:20:49;;;;;;;20.00;11.47;;;;;;;13.23;98.14;95655.25;4998999;28;20774;-43
2021/05/11 04:23:20;;;;;;;19.47;10.07;;;;;;;13.11;98.64;95651.06;5014078;28;20446;-43
2021/05/11 04:25:50;;;;;;;16.20;9.10;;;;;;;13.16;98.89;95654.97;5007278;28;20982;-43
2021/05/11 04:28:18;;;;;;;16.63;11.00;;;;;;;13.20;98.47;95645.06;5014934;28;20793;-37
2021/05/11 04:30:46;;;;;;;24.40;12.00;;;;;;;13.27;98.53;95633.94;5005556;28;20467;-37
2021/05/11 04:33:13;;;;;;;19.57;12.90;;;;;;;13.16;98.67;95628.00;5012092;28;20458;-40
2021/05/11 04:35:41;;;;;;;22.80;13.37;;;;;;;13.23;98.62;95631.72;5010940;28;20477;-43
2021/05/11 04:38:09;;;;;;;21.60;13.87;;;;;;;13.17;98.92;95632.25;5008350;28;20422;-43
2021/05/11 04:40:37;;;;;;;25.50;14.10;;;;;;;13.09;99.28;95642.56;5010703;28;20934;-43
2021/05/11 04:43:06;;;;;;;24.07;13.83;;;;;;;13.02;99.74;95651.88;5013814;28;20414;-37
2021/05/11 04:45:34;;;;;;;29.00;14.70;;;;;;;12.92;99.78;95638.75;5007659;28;20466;-42
2021/05/11 04:48:02;;;;;;;26.00;15.57;;;;;;;13.05;99.75;95662.06;5013917;28;20780;-35
2021/05/11 04:50:30;;;;;;;34.63;16.27;;;;;;;13.05;99.95;95654.25;5009463;28;20473;-41
2021/05/11 04:52:57;;;;;;;25.00;14.97;;;;;;;13.01;99.83;95647.63;5012337;28;20514;-35
2021/05/11 04:55:27;;;;;;;29.80;16.50;;;;;;;13.20;99.82;95642.47;5012897;28;20450;-41
2021/05/11 04:57:54;;;;;;;29.87;17.30;;;;;;;13.21;99.39;95652.75;5013614;28;21011;-41
2021/05/11 05:00:23;;;;;;;24.93;15.33;;;;;;;13.20;99.29;95661.56;5008962;28;20470;-35
2021/05/11 05:02:53;;;;;;;29.87;16.77;;;;;;;13.37;98.89;95670.53;5010525;28;21137;-35
2021/05/11 05:05:25;;;;;;;26.80;15.93;;;;;;;13.35;98.39;95667.25;5001646;28;20469;-36
2021/05/11 05:07:52;;;;;;;32.97;18.33;;;;;;;13.43;98.13;95665.59;5006679;28;20797;-35
2021/05/11 05:10:19;;;;;;;27.80;16.80;;;;;;;13.44;97.77;95663.81;5010865;28;20454;-35
2021/05/11 05:12:47;;;;;;;31.13;15.60;;;;;;;13.38;98.29;95648.66;5012434;28;20466;-42
2021/05/11 05:15:15;;;;;;;31.27;18.00;;;;;;;13.49;98.00;95641.53;5008705;28;20572;-36
2021/05/11 05:17:44;;;;;;;31.03;17.93;;;;;;;13.54;98.43;95648.97;5007361;28;20443;-36
2021/05/11 05:20:12;;;;;;;29.07;16.90;;;;;;;13.57;97.95;95653.94;5013701;28;20491;-42
2021/05/11 05:22:41;;;;;;;37.90;19.37;;;;;;;13.53;97.70;95663.00;5011520;28;20443;-36
2021/05/11 05:25:12;;;;;;;30.93;17.93;;;;;;;13.53;98.06;95670.84;5009455;28;20548;-42
2021/05/11 05:27:46;;;;;;;31.67;18.63;;;;;;;13.63;97.69;95675.13;5008831;28;20451;-42
2021/05/11 05:30:15;;;;;;;44.57;20.40;;;;;;;13.66;97.09;95671.41;5011710;28;20479;-42
2021/05/11 05:32:43;;;;;;;33.27;17.33;;;;;;;13.62;96.97;95667.41;5006561;28;20989;-36
2021/05/11 05:35:11;;;;;;;33.40;18.50;;;;;;;13.64;97.13;95663.69;5004985;28;20833;-39
2021/05/11 05:37:42;;;;;;;33.87;18.57;;;;;;;13.44;97.16;95614.16;5012515;28;20886;-43
2021/05/11 05:40:11;;;;;;;31.43;19.17;;;;;;;13.63;97.36;95658.63;5001252;28;20953;-38
2021/05/11 05:42:39;;;;;;;32.13;18.77;;;;;;;13.63;97.72;95648.16;5008443;28;20879;-43
2021/05/11 05:45:07;;;;;;;35.70;19.27;;;;;;;13.52;97.98;95659.56;5011992;28;20861;-43
2021/05/11 05:47:34;;;;;;;32.77;19.03;;;;;;;13.53;98.15;95670.84;5008216;28;20906;-37
2021/05/11 05:50:07;;;;;;;32.30;20.23;;;;;;;13.53;98.55;95663.00;5008784;28;20713;-46
2021/05/11 05:52:42;;;;;;;31.63;17.60;;;;;;;13.53;98.63;95665.63;5006589;28;20790;-40
2021/05/11 05:55:11;;;;;;;37.40;20.60;;;;;;;13.61;98.33;95671.00;5008878;28;20471;-46
2021/05/11 05:57:39;;;;;;;39.93;22.00;;;;;;;13.74;98.00;95682.03;5000882;28;20492;-45
2021/05/11 06:00:08;;;;;;;40.33;20.97;;;;;;;13.69;97.59;95685.06;5011436;28;20972;-40
2021/05/11 06:02:43;;;;;;;38.27;20.33;;;;;;;13.64;97.89;95675.97;5013345;28;20427;-45
2021/05/11 06:05:12;;;;;;;40.20;19.97;;;;;;;13.74;97.73;95682.03;5007953;28;20979;-45
2021/05/11 06:07:40;;;;;;;28.30;17.33;;;;;;;13.77;97.60;95679.97;5008861;28;20902;-46
2021/05/11 06:10:09;;;;;;;68.13;21.73;;;;;;;13.80;97.25;95665.78;5009275;28;20439;-46
2021/05/11 06:12:50;;;;;;;58.50;20.30;;;;;;;13.85;97.11;95679.28;5013067;28;20929;-40
2021/05/11 06:18:03;;;;;;;33.07;17.93;;;;;;;13.79;96.69;95659.72;5009566;28;20738;-40
2021/05/11 06:20:32;;;;;;;31.77;17.97;;;;;;;13.87;97.01;95645.97;5009165;28;20965;-46
2021/05/11 06:22:59;;;;;;;30.73;18.00;;;;;;;13.91;96.98;95642.09;5009867;28;20880;-46
2021/05/11 06:25:27;;;;;;;27.20;15.47;;;;;;;13.96;96.89;95638.13;5009544;28;20799;-40
2021/05/11 06:27:58;;;;;;;28.13;15.83;;;;;;;13.94;96.87;95639.22;5000280;28;21001;-40
2021/05/11 06:30:25;;;;;;;27.40;15.60;;;;;;;14.00;96.44;95626.38;5009121;28;20965;-43
2021/05/11 06:32:54;;;;;;;28.43;15.60;;;;;;;14.08;96.51;95613.44;5006984;28;20565;-43
2021/05/11 06:35:24;;;;;;;23.70;12.20;;;;;;;14.11;96.15;95630.66;5003998;28;20530;-43
2021/05/11 06:37:57;;;;;;;16.13;10.30;;;;;;;14.07;95.30;95632.72;5008370;28;20436;-37
2021/05/11 06:40:28;;;;;;;31.03;16.03;;;;;;;14.16;95.42;95621.41;5017135;28;20945;-39
2021/05/11 06:42:58;;;;;;;25.77;14.30;;;;;;;14.27;94.99;95634.38;5005510;28;20435;-37
2021/05/11 06:48:19;;;;;;;17.80;11.43;;;;;;;14.20;94.32;95627.22;4952815;28;20800;-43
2021/05/11 06:53:36;;;;;;;23.03;13.90;;;;;;;14.04;95.78;95637.41;5008365;28;20572;-43
2021/05/11 06:56:08;;;;;;;22.43;13.70;;;;;;;14.04;95.74;95627.78;5009158;28;20907;-43
2021/05/11 06:58:35;;;;;;;20.50;13.27;;;;;;;14.08;95.73;95626.50;5005743;28;20431;-43
2021/05/11 07:01:03;;;;;;;19.27;13.37;;;;;;;14.25;95.10;95618.00;5011196;28;20926;-37
2021/05/11 07:03:31;;;;;;;21.53;12.50;;;;;;;14.18;95.06;95609.06;5010821;28;20898;-37
2021/05/11 07:06:00;;;;;;;23.73;12.40;;;;;;;14.16;94.77;95616.16;5009308;28;20432;-43
2021/05/11 07:08:35;;;;;;;19.90;12.67;;;;;;;13.95;95.57;95614.69;5006400;28;20439;-42
2021/05/11 07:11:13;;;;;;;20.07;11.90;;;;;;;13.80;95.90;95626.56;5009839;28;20434;-42
2021/05/11 07:13:41;;;;;;;18.67;10.13;;;;;;;13.86;95.71;95628.63;4997965;28;21016;-36
2021/05/11 07:16:10;;;;;;;19.00;12.47;;;;;;;13.92;95.01;95618.41;5007097;28;20995;-42
2021/05/11 07:18:37;;;;;;;21.90;12.23;;;;;;;13.96;94.70;95621.59;5005303;28;20922;-42
2021/05/11 07:21:06;;;;;;;19.70;13.83;;;;;;;14.03;94.46;95604.34;5010634;28;20423;-36
2021/05/11 07:23:35;;;;;;;17.37;11.27;;;;;;;14.14;94.49;95612.06;5008982;28;20434;-42
2021/05/11 07:26:09;;;;;;;20.00;12.87;;;;;;;14.20;93.76;95601.03;5005547;28;20861;-42
2021/05/11 07:28:48;;;;;;;19.87;12.50;;;;;;;14.32;92.98;95594.69;5005751;28;20981;-36
2021/05/11 07:31:16;;;;;;;19.50;12.60;;;;;;;14.29;92.99;95587.94;5009194;28;20447;-36
2021/05/11 07:33:45;;;;;;;55.23;33.30;;;;;;;14.44;92.87;95590.94;5008919;28;20478;-44
2021/05/11 07:36:13;;;;;;;30.30;16.70;;;;;;;14.37;92.20;95577.56;5009085;28;20662;-42
2021/05/11 07:38:42;;;;;;;19.37;12.50;;;;;;;14.40;92.06;95589.56;5011777;28;20920;-36
2021/05/11 07:41:13;;;;;;;18.13;10.70;;;;;;;14.26;93.18;95590.00;5007003;28;20489;-36
2021/05/11 07:43:42;;;;;;;16.40;10.17;;;;;;;14.28;93.28;95585.44;5006032;28;20917;-39
2021/05/11 07:46:31;;;;;;;15.30;9.90;;;;;;;14.29;92.38;95579.28;4999706;28;20860;-43
2021/05/11 08:06:00;;;;;;;19.20;13.30;;;;;;;14.70;90.05;95597.16;5005119;28;20775;-42
2021/05/11 08:16:45;;;;;;;18.80;11.57;;;;;;;14.58;90.53;95600.97;5005054;28;20447;-37
2021/05/11 08:19:18;;;;;;;17.47;10.60;;;;;;;14.63;89.60;95602.16;5008044;28;20492;-43
2021/05/11 08:22:05;;;;;;;19.63;11.67;;;;;;;14.87;89.07;95607.72;5007424;28;20442;-43
2021/05/11 08:27:38;;;;;;;126.63;67.63;;;;;;;15.27;86.05;95608.19;4998472;28;20446;-43
2021/05/11 08:30:08;;;;;;;24.90;13.30;;;;;;;15.24;85.78;95605.06;5008752;28;20485;-43
2021/05/11 08:32:35;;;;;;;16.70;11.77;;;;;;;15.36;86.25;95615.22;5002928;28;20967;-43
2021/05/11 08:35:04;;;;;;;20.57;11.90;;;;;;;15.31;85.42;95595.63;5005371;28;20954;-43
2021/05/11 08:37:31;;;;;;;18.17;11.77;;;;;;;15.53;85.08;95571.63;5009429;28;20808;-42
2021/05/11 08:39:59;;;;;;;19.73;11.37;;;;;;;15.76;83.95;95554.44;5018996;28;20617;-42
2021/05/11 08:42:26;;;;;;;24.50;12.67;;;;;;;16.05;83.48;95563.66;5008349;28;20981;-36
2021/05/11 08:44:54;;;;;;;20.33;12.10;;;;;;;16.37;81.87;95552.56;5003665;28;20962;-42
2021/05/11 08:47:22;;;;;;;17.33;12.07;;;;;;;16.42;81.10;95571.34;5011179;28;20807;-39
2021/05/11 08:49:50;;;;;;;14.70;9.73;;;;;;;16.43;80.63;95588.75;5005479;28;20573;-42
2021/05/11 08:52:25;;;;;;;18.20;8.37;;;;;;;16.46;80.61;95583.19;5008337;28;20790;-42
2021/05/11 09:06:26;;;;;;;7.30;5.40;;;;;;;17.24;76.82;95564.47;5008267;28;20950;-36
2021/05/11 09:26:10;;;;;;;8.10;5.60;;;;;;;19.07;70.40;95588.13;5002373;28;20807;-39
2021/05/11 09:28:42;;;;;;;10.60;6.03;;;;;;;18.71;71.28;95586.91;5008443;28;20545;-39
2021/05/11 09:31:34;;;;;;;6.60;5.00;;;;;;;18.40;71.37;95591.25;5014029;28;20466;-41
2021/05/11 09:34:17;;;;;;;6.87;4.23;;;;;;;18.33;72.30;95579.75;5008985;28;20462;-47
2021/05/11 09:45:39;;;;;;;5.73;4.20;;;;;;;18.48;71.21;95603.59;5008458;28;20529;-39
2021/05/11 09:51:44;;;;;;;8.00;4.73;;;;;;;18.79;71.59;95592.16;5011385;28;20824;-45
2021/05/11 09:57:09;;;;;;;8.80;4.43;;;;;;;19.04;71.20;95595.53;4986384;28;21060;-45
2021/05/11 10:00:09;;;;;;;10.80;5.70;;;;;;;19.28;71.08;95588.38;4987477;28;20475;-39
2021/05/11 10:32:14;;;;;;;5.60;3.10;;;;;;;19.15;69.03;95572.25;5007035;28;20794;-45
2021/05/11 10:49:23;;;;;;;3.60;2.40;;;;;;;18.92;70.29;95562.59;4997624;28;20767;-44
2021/05/11 10:52:04;;;;;;;2.53;1.87;;;;;;;19.07;70.35;95569.66;4986800;28;20838;-45
2021/05/11 10:54:37;;;;;;;2.00;1.80;;;;;;;19.27;69.42;95575.34;4987960;28;20952;-45
2021/05/11 10:57:26;;;;;;;5.13;1.87;;;;;;;19.30;68.93;95591.66;4992184;28;20746;-39
2021/05/11 11:00:01;;;;;;;2.03;1.60;;;;;;;19.46;68.96;95583.66;4982717;28;20759;-39
2021/05/11 11:05:38;;;;;;;10.40;7.53;;;;;;;19.40;67.80;95602.84;4985750;28;20648;-44
2021/05/11 11:08:35;;;;;;;20.40;12.07;;;;;;;19.41;68.44;95601.84;4989022;28;21039;-44
2021/05/11 11:11:12;;;;;;;7.03;1.40;;;;;;;19.60;68.44;95593.47;4988189;28;21089;-44
2021/05/11 11:13:43;;;;;;;6.00;1.40;;;;;;;19.97;67.73;95598.84;5013605;28;20929;-45
2021/05/11 11:16:10;;;;;;;2.30;1.17;;;;;;;20.69;65.63;95592.94;5006667;28;20978;-45
2021/05/11 11:18:41;;;;;;;3.63;1.43;;;;;;;21.60;62.75;95588.09;5004056;28;20433;-39
2021/05/11 11:21:21;;;;;;;4.57;1.40;;;;;;;21.69;62.40;95587.00;5005500;28;20446;-39
2021/05/11 11:23:49;;;;;;;6.20;4.10;;;;;;;21.33;63.10;95579.00;5007340;28;20515;-45
2021/05/11 11:26:23;;;;;;;5.93;2.37;;;;;;;21.20;62.77;95578.03;5008723;28;20834;-39
2021/05/11 11:28:59;;;;;;;1.13;0.90;;;;;;;21.17;63.39;95581.88;5008519;28;20941;-39
2021/05/11 11:31:33;;;;;;;1.87;0.97;;;;;;;21.29;62.62;95538.00;5001337;28;20436;-45
2021/05/11 11:34:19;;;;;;;2.50;1.20;;;;;;;21.45;61.85;95574.88;5009028;28;20835;-45
2021/05/11 11:36:55;;;;;;;1.97;1.03;;;;;;;21.64;62.42;95573.47;5005574;28;20505;-39
2021/05/11 11:39:29;;;;;;;2.80;1.10;;;;;;;21.45;61.09;95574.06;5010840;28;20711;-45
2021/05/11 11:41:59;;;;;;;1.40;0.90;;;;;;;22.04;60.56;95575.53;5006991;28;20898;-39
2021/05/11 11:44:33;;;;;;;2.50;1.10;;;;;;;22.48;59.39;95564.53;4993841;28;20910;-45
2021/05/11 11:47:03;;;;;;;5.63;0.90;;;;;;;22.45;57.98;95590.63;5012132;28;20411;-39
2021/05/11 11:49:34;;;;;;;1.73;0.90;;;;;;;21.81;60.33;95596.94;5008912;28;20938;-39
2021/05/11 11:52:07;;;;;;;1.50;0.90;;;;;;;21.54;61.07;95610.84;5008218;28;20440;-45
2021/05/11 11:54:39;;;;;;;1.20;0.80;;;;;;;20.83;63.21;95609.84;5008063;28;20478;-39
2021/05/11 12:00:10;;;;;;;1.90;1.10;;;;;;;19.80;67.34;95610.53;5003983;28;21005;-45
2021/05/11 12:02:55;;;;;;;6.90;2.90;;;;;;;19.19;68.02;95618.44;5006281;28;20445;-39
2021/05/11 12:05:24;;;;;;;1.30;1.00;;;;;;;19.42;68.52;95613.22;5010312;28;20995;-39
2021/05/11 12:08:03;;;;;;;2.13;1.33;;;;;;;19.27;68.46;95617.56;5007315;28;21126;-39
2021/05/11 12:10:31;;;;;;;3.20;1.30;;;;;;;19.00;69.67;95615.38;5004053;28;20981;-45
2021/05/11 12:13:03;;;;;;;1.53;1.00;;;;;;;19.13;69.71;95616.47;5010147;28;20812;-44
2021/05/11 12:15:31;;;;;;;18.43;1.73;;;;;;;19.00;69.74;95602.97;4999274;28;20961;-44
2021/05/11 12:18:06;;;;;;;1.33;1.20;;;;;;;18.78;70.34;95606.34;5006492;28;20947;-38
2021/05/11 12:21:08;;;;;;;1.70;1.43;;;;;;;18.61;71.42;95610.00;5006990;28;20463;-39
2021/05/11 12:23:35;;;;;;;1.40;1.10;;;;;;;18.15;72.68;95602.75;5011551;28;20438;-38
2021/05/11 12:26:04;;;;;;;2.70;1.90;;;;;;;17.97;73.99;95614.44;5008608;28;20915;-44
2021/05/11 12:28:34;;;;;;;1.60;1.20;;;;;;;18.05;74.02;95633.72;5012274;28;20466;-45
2021/05/11 12:31:03;;;;;;;4.10;2.10;;;;;;;17.79;74.53;95622.53;5012297;28;20839;-39
2021/05/11 12:33:36;;;;;;;3.80;1.90;;;;;;;17.55;75.22;95640.88;5012533;28;20743;-39
2021/05/11 12:36:19;;;;;;;3.33;2.23;;;;;;;17.45;75.48;95649.88;5010078;28;20807;-45
2021/05/11 12:38:47;;;;;;;3.63;2.27;;;;;;;17.39;76.07;95654.97;5010825;28;21189;-44
2021/05/11 12:41:32;;;;;;;4.03;2.50;;;;;;;17.38;75.83;95654.13;5010770;28;20450;-45
2021/05/11 12:44:30;;;;;;;5.20;2.47;;;;;;;17.33;76.69;95651.97;5005965;28;20989;-39
2021/05/11 12:47:00;;;;;;;3.20;2.43;;;;;;;16.98;78.12;95656.56;5014318;28;20516;-45
2021/05/11 12:49:29;;;;;;;7.40;3.10;;;;;;;16.73;78.92;95656.59;5006313;28;20940;-45
2021/05/11 12:51:59;;;;;;;4.13;3.33;;;;;;;16.46;80.52;95654.09;5008692;28;20826;-44
2021/05/11 12:54:30;;;;;;;13.33;3.10;;;;;;;16.60;80.19;95657.00;5010458;28;20847;-45
2021/05/11 12:57:08;;;;;;;3.70;3.00;;;;;;;16.56;80.58;95654.84;5012974;28;20585;-39
2021/05/11 12:59:46;;;;;;;3.93;3.20;;;;;;;16.60;80.66;95656.19;5008210;28;20977;-45
2021/05/11 13:02:30;;;;;;;4.33;3.20;;;;;;;16.41;81.46;95653.75;5003861;28;20446;-39
2021/05/11 13:09:22;;;;;;;11.63;7.23;;;;;;;16.51;81.03;95654.47;5008423;28;20865;-45
2021/05/11 13:16:59;;;;;;;2.60;2.17;;;;;;;15.39;81.65;95585.25;5009837;28;20446;-45
2021/05/11 13:20:03;;;;;;;2.80;2.50;;;;;;;15.85;81.78;95661.94;5011351;28;21170;-45
2021/05/11 13:22:39;;;;;;;4.10;3.37;;;;;;;15.84;82.27;95672.59;5013168;28;20438;-44
2021/05/11 13:25:26;;;;;;;3.53;2.77;;;;;;;15.61;82.31;95677.44;5008662;28;20467;-39
2021/05/11 13:28:03;;;;;;;46.30;25.17;;;;;;;15.50;82.46;95692.56;5008966;28;21241;-45
2021/05/11 13:30:40;;;;;;;4.00;2.47;;;;;;;15.52;82.72;95693.22;5015317;28;20466;-39
2021/05/11 13:33:24;;;;;;;2.87;1.60;;;;;;;15.40;82.94;95699.66;5012314;28;20425;-39
2021/05/11 13:35:51;;;;;;;2.50;2.10;;;;;;;15.41;83.34;95685.56;5006598;28;20819;-44
2021/05/11 13:38:21;;;;;;;2.07;1.60;;;;;;;15.50;83.27;95689.94;5012942;28;20889;-39
2021/05/11 13:40:49;;;;;;;9.57;1.53;;;;;;;15.36;83.82;95693.88;5010985;28;20991;-45
2021/05/11 13:43:19;;;;;;;1.27;1.17;;;;;;;15.25;84.46;95690.59;5011871;28;20796;-39
2021/05/11 13:45:46;;;;;;;3.47;1.73;;;;;;;15.23;85.55;95692.50;5007418;28;20933;-39
2021/05/11 13:48:19;;;;;;;16.17;1.30;;;;;;;15.18;85.97;95700.00;5012525;28;20778;-39
2021/05/11 13:50:58;;;;;;;2.50;1.50;;;;;;;15.14;87.18;95682.91;5008512;28;20468;-39
2021/05/11 13:53:27;;;;;;;1.30;1.13;;;;;;;15.37;87.00;95705.19;5006555;28;20945;-39
2021/05/11 13:56:08;;;;;;;1.70;1.60;;;;;;;15.43;87.15;95709.84;5010309;28;20902;-39
2021/05/11 14:04:18;;;;;;;2.07;1.40;;;;;;;15.30;88.36;95714.56;5009213;28;20793;-45
2021/05/11 14:06:46;;;;;;;3.90;1.60;;;;;;;15.24;90.75;95712.53;5006223;28;20543;-39
2021/05/11 14:09:14;;;;;;;2.53;1.70;;;;;;;14.98;91.24;95714.16;5010492;28;20973;-39
2021/05/11 14:11:43;;;;;;;5.83;3.30;;;;;;;14.83;93.73;95715.56;5008976;28;20522;-39
2021/05/11 14:14:11;;;;;;;2.40;1.27;;;;;;;14.52;93.50;95688.75;5008521;28;20945;-39
2021/05/11 14:16:42;;;;;;;1.57;0.80;;;;;;;14.80;94.46;95724.53;5009068;28;21056;-45
2021/05/11 14:19:10;;;;;;;1.40;1.03;;;;;;;14.73;93.83;95712.97;5007885;28;20482;-39
2021/05/11 14:21:38;;;;;;;1.40;1.00;;;;;;;14.90;94.51;95695.69;5011363;28;20787;-39
2021/05/11 14:24:07;;;;;;;1.40;1.00;;;;;;;14.98;94.34;95704.50;5006716;28;20952;-45
2021/05/11 14:26:35;;;;;;;1.30;1.00;;;;;;;14.99;94.36;95710.56;5004285;28;20444;-45
2021/05/11 14:29:04;;;;;;;1.60;1.20;;;;;;;14.88;93.76;95708.13;5008840;28;20791;-45
2021/05/11 14:31:31;;;;;;;5.03;1.60;;;;;;;15.10;94.94;95708.59;5014023;28;20444;-44
2021/05/11 14:34:01;;;;;;;1.00;0.80;;;;;;;15.28;94.92;95706.03;5010769;28;20630;-44
2021/05/11 14:36:29;;;;;;;2.17;1.00;;;;;;;15.20;93.60;95708.53;5003201;28;20462;-39
2021/05/11 14:38:56;;;;;;;1.00;0.80;;;;;;;15.13;94.00;95700.44;5007871;28;20802;-39
2021/05/11 14:41:24;;;;;;;1.50;0.67;;;;;;;14.94;92.51;95691.81;5013403;28;20479;-45
2021/05/11 14:43:51;;;;;;;1.07;0.60;;;;;;;14.89;92.31;95700.09;5006037;28;20695;-44
2021/05/11 14:46:20;;;;;;;0.97;0.70;;;;;;;14.92;93.45;95704.22;5010537;28;20827;-45
2021/05/11 14:48:47;;;;;;;0.90;0.60;;;;;;;14.70;92.58;95709.81;5007896;28;20462;-39
2021/05/11 14:51:14;;;;;;;1.03;0.60;;;;;;;14.44;94.18;95714.81;5003380;28;20450;-45
2021/05/11 14:53:42;;;;;;;1.03;0.70;;;;;;;14.36;95.22;95706.84;5008159;28;20443;-39
2021/05/11 14:56:11;;;;;;;3.23;0.70;;;;;;;14.34;95.32;95708.78;5005556;28;21194;-44
2021/05/11 14:58:39;;;;;;;1.50;0.93;;;;;;;14.43;95.19;95705.31;5010177;28;20439;-39
2021/05/11 15:01:08;;;;;;;1.30;0.70;;;;;;;14.45;94.61;95710.41;5010387;28;20549;-45